createdAt,value
2018-09-24T00:01:23.489Z,0.80
2018-09-24T00:03:53.685Z,0.70
2018-09-24T00:06:23.803Z,0.77
2018-09-24T00:08:54.019Z,0.70
2018-09-24T00:11:24.578Z,0.70
2018-09-24T00:13:54.789Z,0.80
2018-09-24T00:16:24.851Z,0.80
2018-09-24T00:18:55.046Z,0.90
2018-09-24T00:21:25.190Z,0.80
2018-09-24T00:23:55.252Z,0.80
2018-09-24T00:26:25.469Z,0.70
2018-09-24T00:28:55.517Z,0.80
2018-09-24T00:31:25.559Z,0.60
2018-09-24T00:33:55.628Z,0.80
2018-09-24T00:36:26.352Z,0.90
2018-09-24T00:38:56.426Z,0.70
2018-09-24T00:41:26.570Z,0.70
2018-09-24T00:43:57.165Z,0.70
2018-09-24T00:46:27.696Z,0.70
2018-09-24T00:48:58.088Z,0.80
2018-09-24T00:51:28.246Z,0.70
2018-09-24T00:53:58.402Z,0.60
2018-09-24T00:56:28.592Z,0.73
2018-09-24T00:58:58.744Z,0.90
2018-09-24T01:01:28.867Z,0.80
2018-09-24T01:03:58.902Z,0.73
2018-09-24T01:06:29.080Z,0.90
2018-09-24T01:08:59.638Z,0.90
2018-09-24T01:11:29.766Z,1.00
2018-09-24T01:13:59.920Z,0.83
2018-09-24T01:16:29.988Z,0.87
2018-09-24T01:19:00.133Z,0.90
2018-09-24T01:21:30.609Z,0.83
2018-09-24T01:24:00.634Z,0.80
2018-09-24T01:26:30.712Z,0.87
2018-09-24T01:29:00.939Z,0.90
2018-09-24T01:31:31.421Z,0.90
2018-09-24T01:34:01.481Z,0.97
2018-09-24T01:36:31.557Z,0.90
2018-09-24T01:39:01.598Z,1.00
2018-09-24T01:41:32.444Z,1.03
2018-09-24T01:44:02.917Z,0.90
2018-09-24T01:46:32.970Z,1.00
2018-09-24T01:49:03.137Z,1.10
2018-09-24T01:51:38.067Z,1.10
2018-09-24T01:54:08.684Z,1.13
2018-09-24T01:56:38.864Z,1.10
2018-09-24T01:59:09.040Z,1.03
2018-09-24T02:01:40.633Z,1.13
2018-09-24T02:04:10.988Z,1.03
2018-09-24T02:06:41.481Z,1.17
2018-09-24T02:09:12.769Z,1.00
2018-09-24T02:11:43.428Z,1.10
2018-09-24T02:14:13.675Z,1.10
2018-09-24T02:16:44.196Z,1.00
2018-09-24T02:19:14.786Z,1.20
2018-09-24T02:21:45.244Z,1.07
2018-09-24T02:24:16.016Z,1.10
2018-09-24T02:26:46.222Z,1.00
2018-09-24T02:29:16.689Z,1.00
2018-09-24T02:31:46.895Z,1.00
2018-09-24T02:34:17.549Z,1.20
2018-09-24T02:36:47.618Z,1.33
2018-09-24T02:39:17.722Z,1.30
2018-09-24T02:41:49.284Z,1.23
2018-09-24T02:44:19.517Z,1.20
2018-09-24T02:46:49.681Z,1.50
2018-09-24T02:49:19.977Z,1.30
2018-09-24T02:51:50.189Z,1.33
2018-09-24T02:54:20.416Z,1.37
2018-09-24T02:56:52.381Z,1.30
2018-09-24T02:59:22.476Z,1.40
2018-09-24T03:01:53.132Z,1.40
2018-09-24T03:04:23.407Z,1.20
2018-09-24T03:06:53.576Z,11.00
2018-09-24T03:09:23.723Z,2.00
2018-09-24T03:11:53.975Z,1.60
2018-09-24T03:14:26.664Z,1.17
2018-09-24T03:16:57.000Z,1.23
2018-09-24T03:19:27.999Z,1.53
2018-09-24T03:21:58.353Z,1.50
2018-09-24T03:24:28.564Z,1.40
2018-09-24T03:26:58.956Z,1.47
2018-09-24T03:29:29.157Z,1.50
2018-09-24T03:31:59.321Z,1.60
2018-09-24T03:34:29.547Z,1.80
2018-09-24T03:37:00.220Z,1.70
2018-09-24T03:39:30.268Z,1.63
2018-09-24T03:42:00.884Z,2.30
2018-09-24T03:44:31.534Z,1.53
2018-09-24T03:47:01.732Z,2.00
2018-09-24T03:49:32.167Z,1.73
2018-09-24T03:52:02.267Z,2.10
2018-09-24T03:54:32.353Z,2.07
2018-09-24T03:57:03.198Z,1.90
2018-09-24T03:59:33.294Z,2.20
2018-09-24T04:02:03.414Z,3.10
2018-09-24T04:04:38.795Z,2.07
2018-09-24T04:07:13.952Z,2.00
2018-09-24T04:09:49.032Z,2.10
2018-09-24T04:12:24.346Z,2.00
2018-09-24T04:14:59.610Z,1.97
2018-09-24T04:17:34.706Z,2.40
2018-09-24T04:20:09.855Z,2.27
2018-09-24T04:22:45.029Z,2.27
2018-09-24T04:25:20.148Z,2.50
2018-09-24T04:27:55.603Z,2.30
2018-09-24T04:30:30.768Z,2.33
2018-09-24T04:33:06.254Z,2.40
2018-09-24T04:35:41.408Z,2.47
2018-09-24T04:38:16.646Z,2.70
2018-09-24T04:40:51.981Z,2.70
2018-09-24T04:43:27.221Z,2.50
2018-09-24T04:46:02.376Z,2.80
2018-09-24T04:48:37.431Z,2.60
2018-09-24T04:51:13.468Z,2.90
2018-09-24T04:53:48.800Z,2.90
2018-09-24T04:56:24.131Z,3.00
2018-09-24T04:58:59.566Z,2.87
2018-09-24T05:01:34.639Z,2.73
2018-09-24T05:04:09.792Z,3.10
2018-09-24T05:06:44.991Z,3.37
2018-09-24T05:09:20.376Z,2.70
2018-09-24T05:11:55.751Z,3.23
2018-09-24T05:14:31.039Z,3.33
2018-09-24T05:17:13.480Z,3.10
2018-09-24T05:19:52.731Z,3.50
2018-09-24T05:22:30.719Z,3.70
2018-09-24T05:25:06.986Z,3.50
2018-09-24T05:27:42.347Z,3.43
2018-09-24T05:30:17.757Z,3.53
2018-09-24T05:32:52.764Z,3.60
2018-09-24T05:35:27.806Z,3.93
2018-09-24T05:38:02.820Z,3.90
2018-09-24T05:40:37.989Z,4.27
2018-09-24T05:43:12.934Z,4.53
2018-09-24T05:45:47.997Z,4.33
2018-09-24T05:48:24.530Z,4.03
2018-09-24T05:50:59.585Z,4.63
2018-09-24T05:53:34.551Z,4.57
2018-09-24T05:56:09.546Z,3.93
2018-09-24T05:58:44.668Z,4.43
2018-09-24T06:01:19.992Z,5.20
2018-09-24T06:03:55.069Z,4.47
2018-09-24T06:06:30.155Z,4.17
2018-09-24T06:09:05.949Z,4.50
2018-09-24T06:11:41.078Z,4.30
2018-09-24T06:14:16.420Z,4.30
2018-09-24T06:16:51.770Z,4.23
2018-09-24T06:19:27.653Z,4.13
2018-09-24T06:22:02.851Z,4.43
2018-09-24T06:24:38.029Z,5.67
2018-09-24T06:27:13.120Z,4.33
2018-09-24T06:29:48.148Z,4.20
2018-09-24T06:32:23.270Z,4.37
2018-09-24T06:34:58.378Z,4.37
2018-09-24T06:37:33.882Z,4.97
2018-09-24T06:40:09.548Z,4.37
2018-09-24T06:42:45.184Z,4.43
2018-09-24T06:45:20.324Z,4.60
2018-09-24T06:47:55.504Z,4.20
2018-09-24T06:50:30.692Z,4.27
2018-09-24T06:53:05.972Z,4.70
2018-09-24T06:55:41.190Z,4.73
2018-09-24T06:58:16.254Z,4.90
2018-09-24T07:00:52.022Z,4.30
2018-09-24T07:03:27.354Z,4.43
2018-09-24T07:06:02.494Z,4.37
2018-09-24T07:08:37.867Z,4.30
2018-09-24T07:11:13.204Z,4.30
2018-09-24T07:13:48.373Z,4.43
2018-09-24T07:16:23.681Z,4.33
2018-09-24T07:18:58.831Z,4.60
2018-09-24T07:21:33.972Z,4.67
2018-09-24T07:24:08.917Z,4.17
2018-09-24T07:26:43.952Z,4.03
2018-09-24T07:29:19.339Z,4.27
2018-09-24T07:31:55.465Z,3.80
2018-09-24T07:34:30.641Z,3.80
2018-09-24T07:37:05.773Z,4.33
2018-09-24T07:39:40.814Z,4.10
2018-09-24T07:42:16.248Z,3.47
2018-09-24T07:44:51.525Z,3.40
2018-09-24T07:47:28.509Z,3.30
2018-09-24T07:50:03.782Z,3.30
2018-09-24T07:52:38.868Z,3.67
2018-09-24T07:55:14.099Z,3.27
2018-09-24T07:57:49.110Z,3.40
2018-09-24T08:00:24.570Z,2.83
2018-09-24T08:02:59.617Z,3.10
2018-09-24T08:05:35.208Z,2.70
2018-09-24T08:08:10.496Z,2.70
2018-09-24T08:10:45.483Z,2.80
2018-09-24T08:13:20.645Z,2.73
2018-09-24T08:15:56.081Z,2.97
2018-09-24T08:18:31.450Z,3.10
2018-09-24T08:21:06.759Z,2.60
2018-09-24T08:23:42.028Z,2.93
2018-09-24T08:26:17.242Z,3.00
2018-09-24T08:28:52.529Z,2.60
2018-09-24T08:31:33.784Z,3.20
2018-09-24T08:34:10.419Z,2.67
2018-09-24T08:36:45.449Z,2.67
2018-09-24T08:39:21.292Z,2.50
2018-09-24T08:41:56.790Z,2.60
2018-09-24T08:44:31.982Z,2.70
2018-09-24T08:47:07.547Z,2.87
2018-09-24T08:49:42.826Z,2.80
2018-09-24T08:52:18.003Z,2.80
2018-09-24T08:54:53.141Z,2.20
2018-09-24T08:57:28.595Z,2.57
2018-09-24T09:00:03.905Z,2.30
2018-09-24T09:02:38.973Z,2.50
2018-09-24T09:05:14.405Z,2.40
2018-09-24T09:07:49.802Z,2.57
2018-09-24T09:10:25.548Z,2.63
2018-09-24T09:13:00.665Z,2.30
2018-09-24T09:15:36.008Z,2.47
2018-09-24T09:18:11.934Z,2.23
2018-09-24T09:20:46.963Z,2.33
2018-09-24T09:23:22.253Z,2.40
2018-09-24T09:25:57.446Z,2.30
2018-09-24T09:28:32.524Z,2.30
2018-09-24T09:31:08.186Z,1.83
2018-09-24T09:33:43.351Z,2.07
2018-09-24T09:36:18.475Z,2.03
2018-09-24T09:38:53.793Z,2.07
2018-09-24T09:41:29.228Z,2.13
2018-09-24T09:44:04.476Z,2.00
2018-09-24T09:46:40.267Z,1.87
2018-09-24T09:49:15.438Z,2.07
2018-09-24T09:51:50.614Z,2.20
2018-09-24T09:54:25.804Z,1.80
2018-09-24T09:57:00.890Z,2.20
2018-09-24T09:59:36.083Z,1.80
2018-09-24T10:02:11.382Z,1.97
2018-09-24T10:04:47.004Z,1.77
2018-09-24T10:07:22.549Z,1.80
2018-09-24T10:09:58.354Z,1.77
2018-09-24T10:12:33.533Z,1.80
2018-09-24T10:15:08.742Z,1.73
2018-09-24T10:17:44.093Z,1.57
2018-09-24T10:20:19.167Z,1.90
2018-09-24T10:22:55.911Z,1.90
2018-09-24T10:25:31.265Z,1.70
2018-09-24T10:28:06.340Z,1.43
2018-09-24T10:30:41.415Z,1.70
2018-09-24T10:33:16.550Z,1.33
2018-09-24T10:35:51.679Z,1.63
2018-09-24T10:38:27.003Z,1.80
2018-09-24T10:41:02.110Z,1.60
2018-09-24T10:43:37.605Z,1.60
2018-09-24T10:46:13.069Z,1.70
2018-09-24T10:48:48.233Z,1.70
2018-09-24T10:51:23.446Z,1.80
2018-09-24T10:53:58.469Z,1.70
2018-09-24T10:56:34.964Z,1.70
2018-09-24T10:59:10.261Z,1.87
2018-09-24T11:01:45.412Z,1.93
2018-09-24T11:04:20.616Z,1.90
2018-09-24T11:06:55.779Z,1.87
2018-09-24T11:09:37.276Z,1.80
2018-09-24T11:12:13.916Z,1.40
2018-09-24T11:14:48.980Z,1.70
2018-09-24T11:17:24.224Z,1.50
2018-09-24T11:19:59.540Z,1.47
2018-09-24T11:22:35.158Z,1.50
2018-09-24T11:25:10.359Z,1.90
2018-09-24T11:27:45.702Z,1.77
2018-09-24T11:30:20.890Z,1.70
2018-09-24T11:32:56.102Z,1.97
2018-09-24T11:35:31.095Z,1.50
2018-09-24T11:38:06.038Z,1.80
2018-09-24T11:40:41.646Z,1.77
2018-09-24T11:43:16.626Z,2.30
2018-09-24T11:45:51.872Z,5.10
2018-09-24T11:48:27.498Z,1.90
2018-09-24T11:51:02.563Z,1.40
2018-09-24T11:53:37.627Z,1.50
2018-09-24T11:56:12.717Z,1.23
2018-09-24T11:58:47.921Z,1.50
2018-09-24T12:01:23.149Z,1.70
2018-09-24T12:03:58.551Z,1.50
2018-09-24T12:06:33.650Z,1.50
2018-09-24T12:09:08.820Z,1.57
2018-09-24T12:11:44.445Z,1.50
2018-09-24T12:14:19.750Z,1.30
2018-09-24T12:16:55.258Z,1.30
2018-09-24T12:19:30.361Z,1.30
2018-09-24T12:22:05.228Z,1.40
2018-09-24T12:24:40.627Z,1.60
2018-09-24T12:27:16.299Z,1.50
2018-09-24T12:29:51.716Z,1.60
2018-09-24T12:32:26.823Z,1.70
2018-09-24T12:35:02.396Z,1.57
2018-09-24T12:37:37.520Z,1.80
2018-09-24T12:40:12.926Z,1.60
2018-09-24T12:42:48.094Z,1.57
2018-09-24T12:45:24.278Z,1.67
2018-09-24T12:47:59.883Z,1.40
2018-09-24T12:50:35.077Z,1.50
2018-09-24T12:53:10.238Z,1.43
2018-09-24T12:55:45.340Z,1.20
2018-09-24T12:58:20.958Z,1.50
2018-09-24T13:00:56.132Z,1.40
2018-09-24T13:03:31.356Z,1.40
2018-09-24T13:06:06.560Z,1.80
2018-09-24T13:08:42.305Z,1.40
2018-09-24T13:11:18.021Z,1.50
2018-09-24T13:13:53.157Z,1.60
2018-09-24T13:16:28.199Z,1.67
2018-09-24T13:19:03.175Z,1.30
2018-09-24T13:21:38.792Z,1.40
2018-09-24T13:24:14.304Z,1.40
2018-09-24T13:26:49.720Z,1.43
2018-09-24T13:29:24.983Z,1.20
2018-09-24T13:32:00.253Z,1.40
2018-09-24T13:34:35.474Z,1.23
2018-09-24T13:37:11.117Z,1.50
2018-09-24T13:39:46.234Z,1.27
2018-09-24T13:42:21.693Z,1.63
2018-09-24T13:44:56.769Z,1.27
2018-09-24T13:47:32.230Z,1.13
2018-09-24T13:50:07.717Z,1.67
2018-09-24T13:52:42.756Z,1.53
2018-09-24T13:55:18.333Z,1.20
2018-09-24T13:57:53.499Z,1.57
2018-09-24T14:00:28.814Z,1.50
2018-09-24T14:03:03.905Z,1.70
2018-09-24T14:05:39.058Z,1.30
2018-09-24T14:08:14.229Z,1.40
2018-09-24T14:10:49.306Z,1.60
2018-09-24T14:13:24.497Z,1.47
2018-09-24T14:15:59.533Z,1.57
2018-09-24T14:18:34.616Z,1.77
2018-09-24T14:21:09.537Z,1.37
2018-09-24T14:23:44.617Z,1.83
2018-09-24T14:26:19.684Z,1.60
2018-09-24T14:28:54.833Z,1.63
2018-09-24T14:31:36.762Z,1.60
2018-09-24T14:34:12.104Z,1.63
2018-09-24T14:36:47.161Z,1.77
2018-09-24T14:39:22.208Z,1.60
2018-09-24T14:41:58.072Z,1.90
2018-09-24T14:44:33.123Z,1.83
2018-09-24T14:47:08.221Z,1.50
2018-09-24T14:49:43.549Z,1.77
2018-09-24T14:52:18.741Z,1.50
2018-09-24T14:54:54.325Z,1.73
2018-09-24T14:57:29.526Z,1.60
2018-09-24T15:00:04.704Z,1.40
2018-09-24T15:02:39.761Z,1.57
2018-09-24T15:05:14.727Z,1.50
2018-09-24T15:07:50.212Z,1.50
2018-09-24T15:10:25.325Z,1.70
2018-09-24T15:13:00.445Z,1.40
2018-09-24T15:15:35.555Z,1.30
2018-09-24T15:18:10.813Z,1.53
2018-09-24T15:20:45.924Z,1.20
2018-09-24T15:23:21.149Z,1.53
2018-09-24T15:25:56.389Z,2.00
2018-09-24T15:28:31.447Z,1.67
2018-09-24T15:31:06.471Z,1.50
2018-09-24T15:33:41.562Z,1.60
2018-09-24T15:36:16.677Z,1.50
2018-09-24T15:38:51.735Z,1.70
2018-09-24T15:41:27.301Z,1.40
2018-09-24T15:44:02.477Z,1.47
2018-09-24T15:46:37.725Z,1.40
2018-09-24T15:49:12.814Z,1.63
2018-09-24T15:51:47.881Z,1.60
2018-09-24T15:54:23.401Z,1.40
2018-09-24T15:56:58.549Z,1.50
2018-09-24T15:59:33.640Z,1.60
2018-09-24T16:02:08.528Z,1.40
2018-09-24T16:04:43.569Z,1.73
2018-09-24T16:07:18.761Z,1.40
2018-09-24T16:09:53.915Z,1.77
2018-09-24T16:12:29.059Z,1.60
2018-09-24T16:15:04.097Z,1.50
2018-09-24T16:17:39.349Z,1.47
2018-09-24T16:20:14.438Z,1.30
2018-09-24T16:22:49.493Z,1.50
2018-09-24T16:25:24.687Z,1.53
2018-09-24T16:27:59.990Z,1.50
2018-09-24T16:30:35.137Z,1.60
2018-09-24T16:33:10.442Z,1.40
2018-09-24T16:35:45.849Z,1.30
2018-09-24T16:38:21.241Z,1.20
2018-09-24T16:40:56.213Z,1.47
2018-09-24T16:43:31.302Z,1.33
2018-09-24T16:46:06.431Z,1.30
2018-09-24T16:48:41.442Z,1.47
2018-09-24T16:51:16.641Z,1.40
2018-09-24T16:53:51.791Z,1.63
2018-09-24T16:56:27.421Z,1.37
2018-09-24T16:59:02.898Z,1.50
2018-09-24T17:01:38.499Z,1.63
2018-09-24T17:04:16.494Z,1.50
2018-09-24T17:06:51.739Z,1.43
2018-09-24T17:09:26.784Z,1.73
2018-09-24T17:12:01.938Z,1.30
2018-09-24T17:14:37.396Z,1.50
2018-09-24T17:17:12.937Z,1.40
2018-09-24T17:19:48.070Z,1.47
2018-09-24T17:22:23.197Z,1.30
2018-09-24T17:24:58.509Z,1.23
2018-09-24T17:27:33.776Z,1.57
2018-09-24T17:30:08.880Z,1.67
2018-09-24T17:32:44.082Z,1.60
2018-09-24T17:35:19.770Z,1.67
2018-09-24T17:37:54.817Z,1.40
2018-09-24T17:40:29.886Z,2.20
2018-09-24T17:43:10.526Z,2.10
2018-09-24T17:45:51.843Z,1.73
2018-09-24T17:48:38.315Z,1.77
2018-09-24T17:51:22.207Z,1.80
2018-09-24T17:54:08.066Z,2.00
2018-09-24T17:56:52.738Z,1.80
2018-09-24T17:59:45.102Z,1.98
2018-09-24T18:02:27.424Z,1.80
2018-09-24T18:05:09.902Z,1.60
2018-09-24T18:07:53.243Z,2.20
2018-09-24T18:10:33.876Z,1.77
2018-09-24T18:13:13.459Z,1.70
2018-09-24T18:15:56.027Z,1.97
2018-09-24T18:18:40.238Z,1.83
2018-09-24T18:21:23.020Z,1.97
2018-09-24T18:24:05.945Z,1.70
2018-09-24T18:26:45.570Z,1.70
2018-09-24T18:29:26.521Z,1.80
2018-09-24T18:32:04.886Z,1.90
2018-09-24T18:34:49.862Z,1.80
2018-09-24T18:37:30.077Z,2.07
2018-09-24T18:40:08.022Z,1.67
2018-09-24T18:42:47.657Z,1.80
2018-09-24T18:45:29.108Z,2.00
2018-09-24T18:48:10.525Z,2.00
2018-09-24T18:50:51.943Z,2.10
2018-09-24T18:53:32.193Z,2.37
2018-09-24T18:56:12.350Z,2.20
2018-09-24T18:58:48.234Z,2.40
2018-09-24T19:01:23.513Z,2.30
2018-09-24T19:03:58.822Z,2.40
2018-09-24T19:06:33.777Z,2.20
2018-09-24T19:09:08.988Z,2.00
2018-09-24T19:11:44.140Z,1.90
2018-09-24T19:14:19.615Z,2.27
2018-09-24T19:16:54.899Z,2.20
2018-09-24T19:19:30.274Z,2.23
2018-09-24T19:22:05.435Z,2.50
2018-09-24T19:24:40.578Z,2.67
2018-09-24T19:27:16.159Z,3.23
2018-09-24T19:29:51.399Z,2.70
2018-09-24T19:32:27.106Z,2.00
2018-09-24T19:35:02.070Z,2.33
2018-09-24T19:37:37.307Z,1.90
2018-09-24T19:40:12.534Z,1.77
2018-09-24T19:42:47.713Z,2.30
2018-09-24T19:45:22.839Z,2.30
2018-09-24T19:47:58.236Z,2.03
2018-09-24T19:50:33.855Z,1.90
2018-09-24T19:53:08.961Z,2.40
2018-09-24T19:55:43.968Z,2.23
2018-09-24T19:58:19.138Z,2.20
2018-09-24T20:00:54.281Z,2.50
2018-09-24T20:03:29.342Z,1.97
2018-09-24T20:06:04.333Z,1.97
2018-09-24T20:08:40.179Z,1.90
2018-09-24T20:11:15.584Z,1.97
2018-09-24T20:13:52.733Z,2.33
2018-09-24T20:16:27.973Z,2.37
2018-09-24T20:19:02.985Z,2.20
2018-09-24T20:21:38.000Z,2.00
2018-09-24T20:24:13.640Z,2.57
2018-09-24T20:26:49.075Z,2.30
2018-09-24T20:29:24.213Z,2.20
2018-09-24T20:31:59.673Z,1.90
2018-09-24T20:34:34.680Z,2.17
2018-09-24T20:37:09.726Z,2.23
2018-09-24T20:39:44.900Z,2.10
2018-09-24T20:42:19.947Z,1.90
2018-09-24T20:44:55.108Z,1.90
2018-09-24T20:47:30.790Z,2.20
2018-09-24T20:50:05.771Z,2.00
2018-09-24T20:52:41.025Z,2.00
2018-09-24T20:55:16.610Z,2.20
2018-09-24T20:57:51.593Z,2.27
2018-09-24T21:00:26.788Z,1.90
2018-09-24T21:03:01.917Z,2.10
2018-09-24T21:05:37.235Z,2.03
2018-09-24T21:08:12.346Z,2.00
2018-09-24T21:10:47.432Z,1.90
2018-09-24T21:13:22.594Z,2.07
2018-09-24T21:16:01.592Z,2.20
2018-09-24T21:18:37.605Z,2.10
2018-09-24T21:21:13.897Z,2.07
2018-09-24T21:23:49.050Z,2.07
2018-09-24T21:26:24.271Z,2.07
2018-09-24T21:28:59.373Z,2.00
2018-09-24T21:31:34.489Z,2.07
2018-09-24T21:34:10.166Z,2.00
2018-09-24T21:36:45.339Z,2.20
2018-09-24T21:39:20.474Z,2.10
2018-09-24T21:41:55.694Z,1.80
2018-09-24T21:44:30.739Z,1.77
2018-09-24T21:47:06.027Z,1.80
2018-09-24T21:49:41.364Z,1.60
2018-09-24T21:52:16.610Z,1.50
2018-09-24T21:54:51.701Z,1.73
2018-09-24T21:57:27.055Z,1.37
2018-09-24T22:00:02.417Z,1.40
2018-09-24T22:02:37.649Z,1.40
2018-09-24T22:05:13.419Z,1.77
2018-09-24T22:07:49.340Z,1.30
2018-09-24T22:10:25.405Z,1.30
2018-09-24T22:13:00.868Z,1.30
2018-09-24T22:15:36.647Z,1.43
2018-09-24T22:18:12.163Z,1.20
2018-09-24T22:20:47.329Z,1.20
2018-09-24T22:23:22.501Z,1.30
2018-09-24T22:25:57.637Z,1.50
2018-09-24T22:28:32.832Z,1.30
2018-09-24T22:31:08.094Z,1.30
2018-09-24T22:33:43.284Z,1.20
2018-09-24T22:36:23.996Z,1.20
2018-09-24T22:38:59.375Z,1.27
2018-09-24T22:41:34.668Z,1.40
2018-09-24T22:44:09.927Z,1.10
2018-09-24T22:46:48.995Z,1.20
2018-09-24T22:49:24.148Z,1.17
2018-09-24T22:51:59.118Z,1.20
2018-09-24T22:54:34.317Z,1.30
2018-09-24T22:57:09.473Z,1.20
2018-09-24T22:59:44.982Z,1.20
2018-09-24T23:02:20.151Z,1.20
2018-09-24T23:04:55.258Z,1.30
2018-09-24T23:07:30.990Z,1.20
2018-09-24T23:10:06.245Z,1.20
2018-09-24T23:12:41.515Z,1.10
2018-09-24T23:15:16.593Z,1.30
2018-09-24T23:17:51.893Z,1.00
2018-09-24T23:20:27.062Z,1.20
2018-09-24T23:23:02.368Z,1.50
2018-09-24T23:25:37.498Z,1.13
2018-09-24T23:28:12.662Z,1.20
2018-09-24T23:30:48.034Z,1.33
2018-09-24T23:33:23.360Z,1.27
2018-09-24T23:35:58.590Z,1.10
2018-09-24T23:38:33.735Z,1.40
2018-09-24T23:41:08.959Z,1.40
2018-09-24T23:43:44.053Z,1.40
2018-09-24T23:46:19.058Z,1.43
2018-09-24T23:48:54.172Z,1.57
2018-09-24T23:51:29.400Z,1.30
2018-09-24T23:54:04.508Z,1.70
2018-09-24T23:56:39.770Z,1.40
2018-09-24T23:59:14.896Z,1.20
